Time;durP1;ratioP1;P1;durP2;ratioP2;P2;SDS_P1;SDS_P2;PMS_P1;PMS_P2;Temp;Humidity;BMP_temperature;BMP_pressure;BME280_temperature;BME280_humidity;BME280_pressure;Samples;Min_cycle;Max_cycle;Signal;HPM_P1;HPM_P2
2023/03/03 00:00:08;;;;;;;3.70;2.90;;;2.50;99.90;;;;;;5076959;28;20482;-50
2023/03/03 00:02:36;;;;;;;5.77;2.83;;;2.30;99.90;;;;;;5077305;28;20469;-49
2023/03/03 00:05:03;;;;;;;4.63;2.60;;;2.20;99.90;;;;;;5077155;28;20481;-50
2023/03/03 00:07:30;;;;;;;4.20;3.10;;;2.10;99.90;;;;;;5076291;28;20476;-51
2023/03/03 00:09:57;;;;;;;4.57;2.60;;;2.00;99.90;;;;;;5076442;28;20448;-49
2023/03/03 00:12:26;;;;;;;8.97;2.47;;;2.00;99.90;;;;;;5077303;28;20552;-52
2023/03/03 00:14:53;;;;;;;3.80;2.70;;;2.00;99.90;;;;;;5076945;28;20520;-51
2023/03/03 00:17:24;;;;;;;3.40;2.63;;;2.10;99.90;;;;;;5076367;28;20567;-50
2023/03/03 00:19:53;;;;;;;3.23;2.50;;;2.20;99.90;;;;;;5076443;28;20460;-50
2023/03/03 00:22:29;;;;;;;3.80;2.40;;;2.10;99.90;;;;;;5076025;28;20492;-51
2023/03/03 00:24:56;;;;;;;2.20;2.00;;;2.20;99.90;;;;;;5076720;28;20527;-50
2023/03/03 00:27:29;;;;;;;5.47;2.70;;;2.10;99.90;;;;;;5076738;28;20473;-50
2023/03/03 00:29:57;;;;;;;6.30;2.90;;;2.20;99.90;;;;;;5075835;28;20521;-50
2023/03/03 00:32:27;;;;;;;3.83;2.40;;;2.00;99.90;;;;;;5077005;28;20524;-49
2023/03/03 00:35:01;;;;;;;2.43;2.23;;;1.90;99.90;;;;;;5077076;28;20517;-50
2023/03/03 00:37:33;;;;;;;4.83;2.63;;;1.70;99.90;;;;;;5076352;28;20476;-50
2023/03/03 00:40:15;;;;;;;2.83;2.57;;;1.80;99.90;;;;;;5076347;28;20535;-49
2023/03/03 00:42:46;;;;;;;2.43;2.03;;;1.70;99.90;;;;;;5076745;28;20479;-50
2023/03/03 00:45:37;;;;;;;6.80;2.53;;;1.90;99.90;;;;;;5076162;28;20480;-50
2023/03/03 00:48:23;;;;;;;3.97;2.40;;;2.00;99.90;;;;;;5076624;28;20842;-52
2023/03/03 00:50:52;;;;;;;2.27;2.07;;;2.00;99.90;;;;;;5075975;28;20859;-50
2023/03/03 00:53:20;;;;;;;4.37;2.70;;;2.00;99.90;;;;;;5075187;28;20734;-51
2023/03/03 00:55:49;;;;;;;6.60;3.00;;;2.10;99.90;;;;;;5075327;28;20484;-50
2023/03/03 00:58:17;;;;;;;4.10;1.80;;;2.10;99.90;;;;;;5074825;28;20512;-50
2023/03/03 01:00:44;;;;;;;2.43;2.23;;;1.70;99.90;;;;;;5076350;28;20468;-50
2023/03/03 01:03:15;;;;;;;5.80;3.67;;;1.50;99.90;;;;;;5076404;28;20518;-50
2023/03/03 01:05:42;;;;;;;4.33;3.33;;;1.60;99.90;;;;;;5076554;28;20476;-52
2023/03/03 01:08:11;;;;;;;4.47;2.80;;;1.50;99.90;;;;;;5075590;28;21006;-50
2023/03/03 01:10:42;;;;;;;6.87;3.30;;;1.60;99.90;;;;;;5075104;28;20496;-50
2023/03/03 01:13:09;;;;;;;4.83;3.03;;;1.60;99.90;;;;;;5075562;28;20493;-50
2023/03/03 01:15:37;;;;;;;2.80;2.50;;;1.60;99.90;;;;;;5075889;28;20481;-50
2023/03/03 01:18:04;;;;;;;4.50;2.90;;;1.50;99.90;;;;;;5074011;28;20542;-50
2023/03/03 01:20:31;;;;;;;6.00;2.93;;;1.40;99.90;;;;;;5075893;28;20531;-53
2023/03/03 01:22:58;;;;;;;4.97;2.93;;;1.20;99.90;;;;;;5075615;28;20461;-50
2023/03/03 01:25:27;;;;;;;4.07;3.57;;;1.10;99.90;;;;;;5076472;28;20535;-50
2023/03/03 01:27:54;;;;;;;3.90;2.90;;;1.10;99.90;;;;;;5075995;28;20467;-50
2023/03/03 01:30:22;;;;;;;2.90;2.43;;;1.10;99.90;;;;;;5075516;28;20520;-50
2023/03/03 01:32:49;;;;;;;2.60;2.40;;;1.30;99.90;;;;;;5075313;28;20552;-50
2023/03/03 01:35:16;;;;;;;5.70;3.13;;;1.30;99.90;;;;;;5075520;28;20528;-52
2023/03/03 01:37:43;;;;;;;4.10;2.83;;;1.40;99.90;;;;;;5075092;28;20558;-50
2023/03/03 01:40:15;;;;;;;2.87;2.20;;;1.50;99.90;;;;;;5075544;28;20528;-50
2023/03/03 01:42:43;;;;;;;5.30;2.40;;;1.60;99.90;;;;;;5075313;28;20528;-50
2023/03/03 01:45:16;;;;;;;4.70;2.50;;;1.70;99.90;;;;;;5075429;28;20695;-49
2023/03/03 01:47:46;;;;;;;3.47;2.37;;;1.60;99.90;;;;;;5073764;28;20488;-49
2023/03/03 01:50:26;;;;;;;2.90;2.60;;;1.50;99.90;;;;;;5073986;28;20465;-50
2023/03/03 01:52:54;;;;;;;4.73;3.30;;;1.60;99.90;;;;;;5073484;28;20484;-51
2023/03/03 01:55:25;;;;;;;2.90;2.27;;;1.60;99.90;;;;;;5056062;28;20593;-50
2023/03/03 01:58:00;;;;;;;3.43;2.40;;;1.60;99.90;;;;;;5072677;28;20518;-50
2023/03/03 02:00:27;;;;;;;2.77;1.93;;;1.60;99.90;;;;;;5072852;28;20498;-51
2023/03/03 02:02:55;;;;;;;3.60;2.13;;;1.70;99.90;;;;;;5073283;28;20497;-49
2023/03/03 02:05:22;;;;;;;3.17;2.53;;;1.80;99.90;;;;;;5075056;28;20449;-49
2023/03/03 02:07:50;;;;;;;2.10;1.50;;;1.80;99.90;;;;;;5074550;28;20876;-51
2023/03/03 02:10:19;;;;;;;4.67;2.80;;;1.80;99.90;;;;;;5129398;22;20445;-47
2023/03/03 02:12:50;;;;;;;2.60;2.23;;;1.80;99.90;;;;;;5010199;28;20460;-49
2023/03/03 02:15:21;;;;;;;3.73;1.93;;;1.80;99.90;;;;;;5010887;28;20523;-47
2023/03/03 02:17:50;;;;;;;2.37;2.17;;;1.70;99.90;;;;;;5011434;28;20501;-49
2023/03/03 02:20:27;;;;;;;1.70;1.57;;;1.60;99.90;;;;;;5011491;28;20526;-47
2023/03/03 02:22:58;;;;;;;2.50;2.10;;;1.40;99.90;;;;;;5011038;28;20453;-47
2023/03/03 02:25:31;;;;;;;3.80;2.10;;;1.40;99.90;;;;;;5011098;28;20531;-49
2023/03/03 02:28:00;;;;;;;5.07;2.23;;;1.50;99.90;;;;;;5011486;28;20490;-50
2023/03/03 02:30:27;;;;;;;4.13;2.60;;;1.40;99.90;;;;;;5010593;28;20494;-49
2023/03/03 02:32:54;;;;;;;4.07;2.23;;;1.60;99.90;;;;;;5011034;28;20440;-47
2023/03/03 02:35:33;;;;;;;5.87;2.80;;;1.70;99.90;;;;;;5011464;28;20521;-49
2023/03/03 02:38:09;;;;;;;5.33;2.63;;;1.80;99.90;;;;;;5011289;28;20507;-47
2023/03/03 02:40:42;;;;;;;2.87;2.40;;;1.90;99.90;;;;;;5011638;28;20503;-47
2023/03/03 02:43:11;;;;;;;3.73;2.27;;;1.80;99.90;;;;;;5011380;28;20488;-47
2023/03/03 02:45:43;;;;;;;2.43;2.10;;;1.80;99.90;;;;;;5011625;28;20449;-48
2023/03/03 02:48:10;;;;;;;5.60;2.20;;;1.80;99.90;;;;;;4997845;28;20970;-47
2023/03/03 02:50:37;;;;;;;2.50;1.83;;;1.90;99.90;;;;;;5011240;28;20502;-47
2023/03/03 02:53:04;;;;;;;2.30;1.40;;;1.80;99.90;;;;;;5010913;28;20457;-47
2023/03/03 02:55:31;;;;;;;2.50;1.77;;;1.70;99.90;;;;;;5011219;28;20544;-49
2023/03/03 02:57:58;;;;;;;2.10;1.50;;;1.30;99.90;;;;;;5011259;28;20570;-47
2023/03/03 03:00:26;;;;;;;2.40;1.67;;;1.30;99.90;;;;;;5011153;28;20487;-48
2023/03/03 03:02:53;;;;;;;4.07;1.50;;;1.50;99.90;;;;;;5010698;28;20471;-47
2023/03/03 03:05:20;;;;;;;2.73;1.90;;;1.70;99.90;;;;;;5010685;28;20478;-47
2023/03/03 03:07:47;;;;;;;2.07;1.87;;;1.70;99.90;;;;;;5010454;28;21025;-47
2023/03/03 03:10:14;;;;;;;4.70;1.90;;;1.70;99.90;;;;;;5010626;28;20488;-47
2023/03/03 03:12:41;;;;;;;2.77;2.07;;;1.80;99.90;;;;;;5011256;28;20452;-47
2023/03/03 03:15:09;;;;;;;1.80;1.63;;;1.90;99.90;;;;;;5010823;28;20482;-47
2023/03/03 03:17:38;;;;;;;3.23;1.90;;;1.90;99.90;;;;;;5011215;28;20501;-47
2023/03/03 03:20:06;;;;;;;4.60;2.30;;;2.00;99.90;;;;;;5008974;28;20527;-47
2023/03/03 03:22:33;;;;;;;4.07;1.90;;;2.10;99.90;;;;;;5010040;28;20479;-50
2023/03/03 03:25:00;;;;;;;2.40;2.20;;;2.20;99.90;;;;;;5009692;28;20532;-48
2023/03/03 03:27:27;;;;;;;4.43;1.97;;;2.10;99.90;;;;;;5009386;28;20532;-48
2023/03/03 03:29:54;;;;;;;3.30;2.00;;;2.00;99.90;;;;;;5009009;28;20450;-48
2023/03/03 03:32:21;;;;;;;3.00;2.50;;;1.90;99.90;;;;;;5009155;28;20897;-48
2023/03/03 03:34:49;;;;;;;3.37;2.97;;;1.50;99.90;;;;;;5009471;28;20507;-51
2023/03/03 03:37:16;;;;;;;3.40;2.20;;;1.60;99.90;;;;;;5008495;28;20471;-48
2023/03/03 03:39:43;;;;;;;7.17;2.50;;;1.80;99.90;;;;;;5010357;28;20441;-47
2023/03/03 03:42:10;;;;;;;5.13;2.73;;;1.80;99.90;;;;;;5010487;28;20491;-47
2023/03/03 03:44:37;;;;;;;4.23;3.10;;;1.90;99.90;;;;;;5011630;28;20443;-47
2023/03/03 03:47:04;;;;;;;4.60;2.47;;;2.00;99.90;;;;;;5011073;28;20541;-47
2023/03/03 03:49:31;;;;;;;3.77;2.00;;;2.00;99.90;;;;;;5010954;28;20942;-47
2023/03/03 03:51:59;;;;;;;2.40;1.67;;;2.10;99.90;;;;;;5010326;28;20554;-48
2023/03/03 03:54:26;;;;;;;3.03;1.90;;;2.20;99.90;;;;;;4989746;28;21035;-47
2023/03/03 03:56:53;;;;;;;4.57;2.53;;;2.20;99.90;;;;;;4989735;28;20487;-50
2023/03/03 03:59:20;;;;;;;4.20;2.70;;;2.30;99.90;;;;;;4989489;28;20482;-45
2023/03/03 04:01:48;;;;;;;4.00;2.00;;;2.20;99.90;;;;;;4990054;28;20508;-48
2023/03/03 04:04:16;;;;;;;4.80;3.03;;;2.20;99.90;;;;;;4990017;28;20460;-48
2023/03/03 04:06:43;;;;;;;4.47;3.90;;;2.10;99.90;;;;;;4999513;28;20468;-47
2023/03/03 04:09:11;;;;;;;3.40;2.93;;;2.10;99.90;;;;;;5010267;28;20486;-48
2023/03/03 04:11:38;;;;;;;3.70;3.30;;;2.20;99.90;;;;;;5013291;28;20554;-47
2023/03/03 04:14:05;;;;;;;3.60;3.10;;;2.20;99.90;;;;;;5013755;28;20540;-47
2023/03/03 04:16:32;;;;;;;3.90;3.60;;;2.20;99.90;;;;;;5014046;28;20479;-48
2023/03/03 04:18:59;;;;;;;4.00;3.60;;;2.20;99.90;;;;;;5013317;28;20567;-47
2023/03/03 04:21:26;;;;;;;3.97;3.57;;;2.20;99.90;;;;;;5013893;28;20954;-49
2023/03/03 04:23:53;;;;;;;3.90;3.50;;;2.20;99.90;;;;;;5014184;28;20459;-47
2023/03/03 04:26:22;;;;;;;2.90;2.70;;;2.20;99.90;;;;;;5014001;28;20946;-48
2023/03/03 04:28:49;;;;;;;3.10;1.87;;;2.30;99.90;;;;;;5013276;28;20532;-47
2023/03/03 04:31:15;;;;;;;3.93;2.20;;;2.40;99.90;;;;;;5013560;28;20502;-47
2023/03/03 04:33:42;;;;;;;5.73;2.43;;;2.40;99.90;;;;;;5013753;28;20479;-49
2023/03/03 04:36:09;;;;;;;4.37;2.50;;;2.40;99.90;;;;;;5014119;28;21142;-47
2023/03/03 04:38:36;;;;;;;4.83;2.40;;;2.30;99.90;;;;;;5013489;28;20921;-47
2023/03/03 04:41:03;;;;;;;3.83;3.40;;;2.10;99.90;;;;;;5013811;28;20471;-47
2023/03/03 04:43:32;;;;;;;4.40;3.60;;;1.70;99.90;;;;;;5013207;28;20985;-45
2023/03/03 04:45:58;;;;;;;5.83;4.77;;;1.40;99.90;;;;;;5013581;28;20483;-47
2023/03/03 04:48:25;;;;;;;5.10;3.13;;;1.50;99.90;;;;;;5013364;28;20901;-47
2023/03/03 04:50:52;;;;;;;4.23;3.83;;;1.70;99.90;;;;;;5013035;28;20464;-48
2023/03/03 04:53:19;;;;;;;5.80;4.30;;;1.60;99.90;;;;;;5011637;28;20775;-47
2023/03/03 04:55:46;;;;;;;4.10;2.90;;;1.40;99.90;;;;;;4993971;28;20495;-48
2023/03/03 04:58:14;;;;;;;4.07;2.90;;;1.40;99.90;;;;;;5012314;28;20518;-47
2023/03/03 05:00:43;;;;;;;3.23;2.93;;;1.40;99.90;;;;;;5012709;28;20503;-47
2023/03/03 05:03:11;;;;;;;3.97;2.57;;;1.30;99.90;;;;;;5012357;28;21018;-47
2023/03/03 05:05:38;;;;;;;4.77;2.70;;;1.50;99.90;;;;;;5012835;28;20535;-48
2023/03/03 05:08:06;;;;;;;2.80;2.07;;;1.80;99.90;;;;;;5013463;28;20510;-47
2023/03/03 05:10:32;;;;;;;2.57;1.90;;;2.00;99.90;;;;;;5013011;28;20511;-47
2023/03/03 05:12:59;;;;;;;3.03;2.00;;;2.10;99.90;;;;;;5013186;28;20453;-47
2023/03/03 05:15:26;;;;;;;4.70;1.97;;;2.10;99.90;;;;;;5012808;28;20530;-49
2023/03/03 05:17:55;;;;;;;3.17;2.30;;;2.10;99.90;;;;;;5012523;28;20444;-48
2023/03/03 05:20:23;;;;;;;2.60;2.10;;;2.20;99.90;;;;;;5011927;28;20443;-48
2023/03/03 05:22:50;;;;;;;3.00;1.97;;;2.40;99.90;;;;;;5011504;28;20539;-47
2023/03/03 05:25:17;;;;;;;3.20;2.90;;;2.40;99.90;;;;;;5012812;28;20532;-50
2023/03/03 05:27:44;;;;;;;3.60;2.50;;;2.40;99.90;;;;;;5012997;28;20528;-47
2023/03/03 05:30:12;;;;;;;2.67;2.00;;;2.50;99.90;;;;;;5011407;28;20494;-49
2023/03/03 05:32:39;;;;;;;3.20;1.90;;;2.50;99.90;;;;;;5012370;28;20479;-49
2023/03/03 05:35:08;;;;;;;3.20;2.33;;;2.60;99.90;;;;;;5012643;28;20529;-47
2023/03/03 05:37:35;;;;;;;5.03;1.80;;;2.60;99.90;;;;;;5011693;28;20967;-47
2023/03/03 05:40:03;;;;;;;3.60;2.20;;;2.50;99.90;;;;;;5012381;28;20590;-47
2023/03/03 05:42:30;;;;;;;3.83;2.07;;;2.50;99.90;;;;;;5012233;28;20450;-50
2023/03/03 05:44:57;;;;;;;5.00;2.53;;;2.50;99.90;;;;;;5010643;28;20520;-49
2023/03/03 05:47:23;;;;;;;3.10;2.80;;;2.50;99.90;;;;;;5009961;28;20460;-48
2023/03/03 05:49:50;;;;;;;3.67;2.33;;;2.30;99.90;;;;;;5011154;28;20476;-48
2023/03/03 05:52:18;;;;;;;2.33;2.10;;;2.00;99.90;;;;;;5012062;28;20495;-47
2023/03/03 05:54:46;;;;;;;5.83;2.53;;;1.80;99.90;;;;;;5010503;28;20525;-47
2023/03/03 05:57:12;;;;;;;6.13;2.17;;;2.10;99.90;;;;;;5011339;28;21065;-48
2023/03/03 05:59:39;;;;;;;4.60;2.53;;;2.10;99.90;;;;;;5011529;28;20515;-47
2023/03/03 06:02:06;;;;;;;5.07;2.70;;;1.90;99.90;;;;;;5010859;28;20491;-47
2023/03/03 06:04:34;;;;;;;5.87;3.37;;;1.80;99.90;;;;;;5006711;28;20474;-46
2023/03/03 06:07:01;;;;;;;2.87;2.53;;;1.90;99.90;;;;;;5011278;28;21192;-48
2023/03/03 06:09:29;;;;;;;6.80;2.00;;;1.90;99.90;;;;;;5011419;28;20438;-47
2023/03/03 06:11:56;;;;;;;2.63;1.83;;;2.00;99.90;;;;;;5010079;28;20583;-47
2023/03/03 06:14:23;;;;;;;3.50;2.80;;;2.20;99.90;;;;;;5011701;28;20521;-49
2023/03/03 06:16:49;;;;;;;3.07;2.50;;;2.40;99.90;;;;;;5012112;28;20957;-49
2023/03/03 06:19:17;;;;;;;5.73;2.30;;;2.20;99.90;;;;;;5009726;28;20873;-47
2023/03/03 06:21:43;;;;;;;2.60;1.87;;;2.50;99.90;;;;;;5010615;28;20947;-50
2023/03/03 06:24:10;;;;;;;3.90;2.70;;;2.50;99.90;;;;;;5007031;28;20485;-48
2023/03/03 06:26:38;;;;;;;3.20;2.83;;;2.60;99.90;;;;;;5011154;28;20528;-48
2023/03/03 06:29:06;;;;;;;4.00;3.07;;;2.50;99.90;;;;;;5010926;28;20894;-47
2023/03/03 06:31:32;;;;;;;3.70;3.40;;;2.60;99.90;;;;;;5011201;28;21047;-47
2023/03/03 06:33:59;;;;;;;5.53;2.70;;;2.60;99.90;;;;;;5011742;28;20480;-47
2023/03/03 06:36:26;;;;;;;2.30;2.10;;;2.70;99.90;;;;;;5011927;28;20489;-49
2023/03/03 06:38:53;;;;;;;4.60;2.67;;;2.70;99.90;;;;;;5011201;28;20513;-47
2023/03/03 06:41:20;;;;;;;3.57;3.20;;;2.70;99.90;;;;;;5011368;28;21085;-47
2023/03/03 06:43:48;;;;;;;6.30;4.40;;;2.70;99.90;;;;;;5011553;28;20532;-47
2023/03/03 06:46:16;;;;;;;5.63;4.17;;;2.70;99.90;;;;;;5011305;28;20866;-47
2023/03/03 06:48:43;;;;;;;4.77;3.40;;;2.60;99.90;;;;;;5011208;28;20442;-50
2023/03/03 06:51:22;;;;;;;6.50;4.80;;;2.70;99.90;;;;;;5011290;28;20507;-47
2023/03/03 06:53:49;;;;;;;5.13;3.67;;;2.70;99.90;;;;;;5010731;28;20440;-48
2023/03/03 06:56:18;;;;;;;8.30;3.53;;;2.50;99.90;;;;;;5009839;28;20542;-48
2023/03/03 06:58:45;;;;;;;6.67;4.87;;;2.40;99.90;;;;;;5008343;28;20565;-47
2023/03/03 07:01:16;;;;;;;6.33;4.40;;;2.60;99.90;;;;;;5006356;28;20544;-51
2023/03/03 07:03:43;;;;;;;5.43;3.77;;;2.50;99.90;;;;;;5010036;28;20534;-49
2023/03/03 07:06:20;;;;;;;5.50;3.80;;;2.40;99.90;;;;;;5009548;28;20476;-48
2023/03/03 07:08:47;;;;;;;17.33;12.47;;;2.50;99.90;;;;;;5010108;28;21004;-47
2023/03/03 07:11:18;;;;;;;18.77;12.67;;;2.70;99.90;;;;;;5010304;28;20505;-48
2023/03/03 07:13:47;;;;;;;21.30;15.57;;;2.60;99.90;;;;;;5010591;28;20523;-47
2023/03/03 07:16:17;;;;;;;18.57;16.67;;;2.50;99.90;;;;;;5011822;28;20641;-48
2023/03/03 07:18:50;;;;;;;12.57;11.27;;;2.40;99.90;;;;;;5010349;28;21015;-47
2023/03/03 07:21:19;;;;;;;12.30;9.13;;;2.40;99.90;;;;;;5011203;28;20819;-48
2023/03/03 07:23:48;;;;;;;9.33;8.40;;;2.40;99.90;;;;;;5010561;28;20538;-48
2023/03/03 07:26:17;;;;;;;9.43;7.40;;;2.20;99.90;;;;;;5011317;28;20487;-49
2023/03/03 07:28:48;;;;;;;10.00;6.27;;;2.20;99.90;;;;;;5010258;28;20864;-47
2023/03/03 07:31:27;;;;;;;6.83;5.00;;;2.20;99.90;;;;;;5010810;28;20549;-48
2023/03/03 07:33:55;;;;;;;5.97;5.00;;;2.30;99.90;;;;;;5011236;28;20458;-47
2023/03/03 07:36:27;;;;;;;11.00;8.80;;;2.60;99.90;;;;;;5011363;28;20476;-47
2023/03/03 07:38:57;;;;;;;15.90;10.00;;;2.70;99.90;;;;;;5010770;28;20566;-47
2023/03/03 07:41:24;;;;;;;13.40;8.00;;;2.60;99.90;;;;;;5010719;28;20491;-49
2023/03/03 07:43:53;;;;;;;12.77;9.00;;;2.20;99.90;;;;;;5010886;28;20484;-48
2023/03/03 07:46:28;;;;;;;12.80;7.40;;;2.10;99.90;;;;;;5013073;28;20872;-47
2023/03/03 07:48:57;;;;;;;8.63;6.90;;;2.30;99.90;;;;;;5014386;28;20995;-47
2023/03/03 07:51:27;;;;;;;9.30;6.87;;;2.50;99.90;;;;;;5014396;28;20471;-47
2023/03/03 07:54:00;;;;;;;9.53;7.70;;;2.60;99.90;;;;;;5014126;28;20881;-47
2023/03/03 07:56:30;;;;;;;10.07;7.53;;;2.70;99.90;;;;;;5014405;28;20534;-47
2023/03/03 07:58:58;;;;;;;9.23;7.37;;;2.80;99.90;;;;;;5014663;28;20448;-49
2023/03/03 08:01:39;;;;;;;8.10;6.50;;;2.80;99.90;;;;;;5014632;28;20511;-48
2023/03/03 08:04:16;;;;;;;8.67;6.70;;;2.80;99.90;;;;;;5014756;28;20443;-47
2023/03/03 08:06:47;;;;;;;8.00;6.77;;;2.80;99.90;;;;;;5014292;28;20947;-50
2023/03/03 08:09:39;;;;;;;12.40;8.57;;;2.90;99.90;;;;;;5014380;28;20495;-47
2023/03/03 08:12:23;;;;;;;9.53;6.60;;;3.00;99.90;;;;;;5089160;22;20591;-49
2023/03/03 08:14:52;;;;;;;10.00;6.37;;;3.00;99.90;;;;;;5056724;28;20455;-52
2023/03/03 08:17:23;;;;;;;10.20;6.27;;;3.00;99.90;;;;;;5057854;28;20532;-50
2023/03/03 08:19:52;;;;;;;7.30;5.70;;;2.90;99.90;;;;;;5057374;28;20579;-51
2023/03/03 08:22:24;;;;;;;8.57;6.20;;;2.80;99.90;;;;;;5057272;28;20896;-50
2023/03/03 08:24:51;;;;;;;6.03;5.43;;;2.80;99.90;;;;;;5058010;28;20519;-50
2023/03/03 08:27:18;;;;;;;7.40;4.97;;;2.80;99.90;;;;;;5057790;28;20529;-50
2023/03/03 08:29:45;;;;;;;6.43;5.70;;;2.90;99.90;;;;;;5057808;28;20526;-51
2023/03/03 08:32:12;;;;;;;9.23;5.70;;;3.00;99.90;;;;;;5057653;28;20510;-50
2023/03/03 08:34:40;;;;;;;16.90;13.03;;;3.20;99.90;;;;;;5058005;28;20526;-52
2023/03/03 08:37:07;;;;;;;9.77;8.30;;;3.20;99.90;;;;;;5057790;28;20479;-50
2023/03/03 08:39:34;;;;;;;7.03;5.47;;;3.30;99.90;;;;;;5057040;28;20524;-51
2023/03/03 08:42:01;;;;;;;9.13;5.30;;;3.30;99.90;;;;;;5057285;28;20463;-52
2023/03/03 08:44:28;;;;;;;6.73;5.13;;;3.40;99.90;;;;;;5057883;28;20479;-50
2023/03/03 08:46:55;;;;;;;10.67;5.57;;;3.40;99.90;;;;;;5057915;28;20796;-50
2023/03/03 08:49:37;;;;;;;8.00;4.93;;;3.50;99.90;;;;;;5057299;28;20532;-50
2023/03/03 08:52:05;;;;;;;6.60;4.43;;;3.50;99.90;;;;;;5057330;28;20607;-49
2023/03/03 08:54:32;;;;;;;8.53;5.73;;;3.50;99.90;;;;;;5057522;28;20444;-52
2023/03/03 08:56:59;;;;;;;10.63;6.83;;;3.60;99.90;;;;;;5057105;28;20483;-52
2023/03/03 08:59:26;;;;;;;7.40;5.93;;;3.50;99.90;;;;;;5057084;28;21028;-51
2023/03/03 09:01:53;;;;;;;9.03;7.20;;;3.50;99.90;;;;;;5057061;28;20482;-50
2023/03/03 09:04:20;;;;;;;7.13;5.93;;;3.60;99.90;;;;;;5057385;28;20491;-50
2023/03/03 09:06:47;;;;;;;11.83;6.20;;;3.60;99.90;;;;;;5056943;28;20514;-49
2023/03/03 09:09:16;;;;;;;15.77;6.23;;;3.70;99.90;;;;;;5057554;28;20471;-50
2023/03/03 09:11:43;;;;;;;8.33;5.90;;;3.70;99.90;;;;;;5057237;28;20530;-51
2023/03/03 09:14:12;;;;;;;7.60;5.70;;;3.70;99.90;;;;;;5056739;28;20447;-49
2023/03/03 09:16:40;;;;;;;6.50;5.10;;;3.80;99.90;;;;;;5055932;28;20531;-50
2023/03/03 09:19:19;;;;;;;10.20;5.83;;;3.60;99.90;;;;;;5055035;28;20537;-49
2023/03/03 09:21:46;;;;;;;7.60;5.57;;;3.50;99.90;;;;;;5056157;28;20464;-49
2023/03/03 09:24:24;;;;;;;7.80;5.47;;;3.60;99.90;;;;;;5056380;28;20954;-50
2023/03/03 09:26:52;;;;;;;10.00;5.70;;;3.70;99.90;;;;;;5056660;28;20761;-47
2023/03/03 09:29:24;;;;;;;5.13;4.60;;;3.70;99.90;;;;;;5054933;28;20446;-51
2023/03/03 09:31:52;;;;;;;9.87;5.70;;;3.60;99.90;;;;;;5055620;28;20973;-50
2023/03/03 09:34:26;;;;;;;8.30;6.50;;;3.70;99.90;;;;;;5055462;28;20945;-51
2023/03/03 09:36:55;;;;;;;9.43;5.90;;;3.70;99.90;;;;;;5055439;28;20455;-49
2023/03/03 09:39:25;;;;;;;7.80;5.57;;;3.80;99.90;;;;;;5055389;28;20466;-51
2023/03/03 09:42:32;;;;;;;11.80;5.60;;;3.80;99.90;;;;;;5055483;28;20454;-52
2023/03/03 09:45:36;;;;;;;9.80;5.03;;;3.80;99.90;;;;;;5036390;28;20482;-52
2023/03/03 09:48:30;;;;;;;8.03;4.60;;;4.00;99.90;;;;;;5035104;28;20463;-50
2023/03/03 09:51:13;;;;;;;6.27;4.77;;;4.10;99.90;;;;;;5024409;28;20553;-50
2023/03/03 09:53:58;;;;;;;8.40;5.60;;;4.00;99.90;;;;;;5035368;28;20468;-50
2023/03/03 09:56:33;;;;;;;7.80;5.40;;;4.10;99.90;;;;;;5036717;28;20527;-51
2023/03/03 09:59:19;;;;;;;4.77;4.37;;;4.20;99.90;;;;;;5036391;28;20480;-48
2023/03/03 10:02:00;;;;;;;14.40;6.50;;;4.20;99.90;;;;;;5035485;28;20526;-51
2023/03/03 10:05:03;;;;;;;9.60;6.87;;;4.30;99.90;;;;;;5034730;28;20997;-52
2023/03/03 10:07:41;;;;;;;10.80;6.27;;;4.50;99.90;;;;;;5034094;28;20449;-49
2023/03/03 10:10:20;;;;;;;9.63;5.80;;;4.50;99.90;;;;;;5034688;28;20471;-50
2023/03/03 10:12:57;;;;;;;9.20;6.00;;;4.70;99.90;;;;;;5034532;28;21079;-53
2023/03/03 10:15:36;;;;;;;8.10;5.47;;;4.70;99.90;;;;;;5034430;28;20528;-50
2023/03/03 10:18:23;;;;;;;9.40;6.50;;;4.70;99.90;;;;;;5034061;28;20904;-50
2023/03/03 10:21:02;;;;;;;9.00;7.20;;;4.90;99.90;;;;;;5034035;28;20544;-53
2023/03/03 10:23:53;;;;;;;8.93;6.00;;;4.90;99.90;;;;;;5034521;28;20494;-50
2023/03/03 10:26:31;;;;;;;8.60;6.07;;;4.90;99.90;;;;;;5034851;28;20449;-51
2023/03/03 10:29:10;;;;;;;7.47;6.40;;;4.90;99.90;;;;;;5034131;28;20513;-49
2023/03/03 10:31:57;;;;;;;7.93;6.07;;;4.90;99.90;;;;;;5033895;28;20982;-50
2023/03/03 10:34:41;;;;;;;9.67;8.67;;;5.00;99.90;;;;;;5035184;28;20531;-51
2023/03/03 10:37:13;;;;;;;9.57;6.53;;;5.00;99.90;;;;;;5034344;28;20505;-50
2023/03/03 10:39:58;;;;;;;7.80;6.13;;;5.10;99.90;;;;;;5034212;28;20528;-51
2023/03/03 10:42:46;;;;;;;9.80;6.97;;;5.10;99.90;;;;;;5035230;28;20468;-51
2023/03/03 10:45:34;;;;;;;9.37;6.50;;;5.10;99.90;;;;;;5042994;28;20487;-52
2023/03/03 10:48:27;;;;;;;11.43;7.50;;;5.20;99.90;;;;;;5074216;28;20451;-51
2023/03/03 10:50:59;;;;;;;8.13;6.93;;;5.30;99.90;;;;;;5063371;28;20554;-50
2023/03/03 10:53:34;;;;;;;12.23;7.80;;;5.30;99.90;;;;;;5074768;28;20983;-50
2023/03/03 10:56:22;;;;;;;10.03;7.67;;;5.30;99.90;;;;;;5074439;28;20521;-51
2023/03/03 10:59:01;;;;;;;8.63;7.27;;;5.30;99.90;;;;;;5073534;28;20892;-49
2023/03/03 11:01:44;;;;;;;9.90;7.33;;;5.30;99.90;;;;;;5054382;28;20551;-51
2023/03/03 11:04:47;;;;;;;13.57;8.38;;;5.30;99.90;;;;;;5033191;28;20449;-49
2023/03/03 11:07:21;;;;;;;10.10;7.80;;;5.30;99.90;;;;;;5034117;28;20201;-54
2023/03/03 11:10:13;;;;;;;10.30;7.10;;;5.30;99.90;;;;;;5033327;28;20471;-50
2023/03/03 11:12:52;;;;;;;11.20;7.77;;;5.30;99.90;;;;;;5033395;28;20476;-53
2023/03/03 11:15:36;;;;;;;13.50;8.60;;;5.20;99.90;;;;;;5033453;28;20453;-50
2023/03/03 11:18:15;;;;;;;11.43;8.13;;;5.30;99.90;;;;;;5033314;28;20452;-49
2023/03/03 11:20:51;;;;;;;10.67;9.07;;;5.30;99.90;;;;;;5036052;28;20514;-51
2023/03/03 11:23:42;;;;;;;10.70;8.93;;;5.30;99.90;;;;;;5037953;28;20531;-50
2023/03/03 11:26:16;;;;;;;10.43;8.73;;;5.30;99.90;;;;;;5036162;28;20982;-53
2023/03/03 11:28:58;;;;;;;10.30;8.10;;;5.20;99.90;;;;;;5035660;28;20483;-53
2023/03/03 11:31:31;;;;;;;17.50;11.10;;;5.30;99.90;;;;;;5051527;28;20556;-53
2023/03/03 11:34:07;;;;;;;10.90;9.17;;;5.30;99.90;;;;;;5056264;28;20959;-50
2023/03/03 11:36:38;;;;;;;17.07;10.17;;;5.30;99.90;;;;;;5056811;28;21011;-53
2023/03/03 11:39:09;;;;;;;11.40;8.33;;;5.30;99.90;;;;;;5062340;28;20854;-50
2023/03/03 11:41:41;;;;;;;14.80;9.57;;;5.40;99.90;;;;;;5064616;28;20565;-53
2023/03/03 11:44:21;;;;;;;11.50;9.23;;;5.40;99.90;;;;;;5065898;28;20447;-50
2023/03/03 11:46:51;;;;;;;13.30;8.70;;;5.40;99.90;;;;;;5066908;28;20471;-50
2023/03/03 11:49:25;;;;;;;14.67;9.80;;;5.40;99.90;;;;;;5066953;28;20495;-53
2023/03/03 11:52:02;;;;;;;17.00;9.63;;;5.30;99.90;;;;;;5067835;28;20575;-51
2023/03/03 11:54:32;;;;;;;12.30;10.47;;;5.40;99.90;;;;;;5067488;28;20472;-53
2023/03/03 11:57:14;;;;;;;18.73;10.90;;;5.40;99.90;;;;;;5064517;28;20477;-50
2023/03/03 12:00:14;;;;;;;13.77;9.47;;;5.40;99.90;;;;;;5063528;28;20583;-51
2023/03/03 12:03:02;;;;;;;14.80;9.33;;;5.40;99.90;;;;;;5061458;28;20737;-50
2023/03/03 12:05:47;;;;;;;12.30;9.30;;;5.40;99.90;;;;;;5066642;28;20826;-52
2023/03/03 12:08:30;;;;;;;13.17;10.67;;;5.40;99.90;;;;;;5067010;28;20479;-50
2023/03/03 12:11:06;;;;;;;13.80;10.57;;;5.40;99.90;;;;;;5067207;28;20471;-49
2023/03/03 12:13:44;;;;;;;13.77;10.47;;;5.40;99.90;;;;;;5069163;28;20474;-52
2023/03/03 12:16:15;;;;;;;13.13;10.10;;;5.40;99.90;;;;;;5066578;28;20467;-50
2023/03/03 12:18:58;;;;;;;15.70;10.20;;;5.40;99.90;;;;;;5063859;28;20505;-51
2023/03/03 12:21:41;;;;;;;16.40;10.40;;;5.40;99.90;;;;;;5064866;28;20855;-51
2023/03/03 12:24:31;;;;;;;15.10;11.37;;;5.40;99.90;;;;;;5064447;28;20478;-50
2023/03/03 12:27:10;;;;;;;15.87;11.80;;;5.50;99.90;;;;;;5067605;28;20472;-51
2023/03/03 12:29:45;;;;;;;16.77;11.53;;;5.50;99.90;;;;;;5064529;28;20457;-50
2023/03/03 12:32:25;;;;;;;20.67;11.40;;;5.60;99.90;;;;;;5065803;28;20464;-52
2023/03/03 12:34:58;;;;;;;15.60;10.50;;;5.60;99.90;;;;;;5066162;28;20476;-50
2023/03/03 12:37:48;;;;;;;14.80;11.37;;;5.50;99.90;;;;;;5060397;28;20473;-51
2023/03/03 12:40:19;;;;;;;23.50;12.47;;;5.60;99.90;;;;;;5054970;28;20982;-52
2023/03/03 12:43:04;;;;;;;15.10;10.93;;;5.60;99.90;;;;;;5051066;28;21041;-50
2023/03/03 12:45:41;;;;;;;15.83;11.87;;;5.60;99.90;;;;;;5053210;28;20449;-52
2023/03/03 12:48:13;;;;;;;13.27;10.20;;;5.60;99.90;;;;;;5052212;28;20477;-51
2023/03/03 12:50:54;;;;;;;15.87;9.80;;;5.60;99.90;;;;;;5056941;28;20438;-50
2023/03/03 12:53:39;;;;;;;21.23;11.23;;;5.60;99.90;;;;;;5056761;28;20475;-53
2023/03/03 12:56:08;;;;;;;14.63;11.10;;;5.70;99.90;;;;;;5056952;28;20494;-50
2023/03/03 12:58:45;;;;;;;14.20;12.00;;;5.70;99.90;;;;;;5055961;28;20525;-50
2023/03/03 13:01:34;;;;;;;15.57;10.60;;;5.80;99.90;;;;;;5054890;28;20481;-52
2023/03/03 13:04:08;;;;;;;16.03;11.67;;;5.70;99.90;;;;;;5056150;28;20488;-52
2023/03/03 13:06:42;;;;;;;23.30;12.73;;;5.70;99.90;;;;;;5056302;28;20466;-50
2023/03/03 13:09:22;;;;;;;15.37;10.63;;;5.80;99.90;;;;;;5055811;28;20471;-52
2023/03/03 13:12:10;;;;;;;15.50;11.53;;;5.70;99.90;;;;;;5055856;28;21010;-51
2023/03/03 13:14:45;;;;;;;16.40;11.70;;;5.80;99.90;;;;;;5055736;28;20440;-52
2023/03/03 13:17:19;;;;;;;19.10;12.90;;;5.80;99.90;;;;;;5055920;28;20494;-51